Startpagina
METAR-TAF:

METAR-TAF

Vliegvelden :

Villacoublay, Frankrijk

breedte: 48-46N, lengte: 002-12E, hoogte: 177 m

Actueel weer

Dit bericht is 43 minuten geleden gemaakt, om 03:30 UTC
Wind 4 kt uit het noorden
Temperatuur 15°C
Vochtigheid 77%
Druk 1017 hPa
Zicht 10 km of meer
geen wolken onder 1500 m en geen cumulonimbus

METAR: LFPV 020330Z AUTO 01004KT CAVOK 15/11 Q1017 NOSIG

Tijdstip: 06:13 (04:13 UTC)

Verwachting

Dit bericht is 2 uur en het 13 minuten geleden gemaakt, om 02:00 UTC
Verwachting geldig van 02 om 03 UTC tot 03 om 03 UTC
Wind 5 kt uit het noordoosten
Zicht 10 km of meer
geen wolken onder 1500 m en geen cumulonimbus

TAF: LFPV 020200Z 0203/0303 04005KT CAVOK

Waarnemingen en weersverwachtingen van meer dan 4000 vliegvelden (METAR en TAF).

De beschikbare stations zijn de gele en rode punten op de kaart.

Ga met uw muis naar het station om de naam te zien.

Klik dan om waarnemingen en weersverwachtingen te zien.

kaart wijzigen: klik op de groene knoppen met een zwart kruis om in te zoomen, op de groene knop met een streepje om uit te zoomen of op de groene pijlen voor aangrenzende kaarten.


METAR-TAF: